sensor_id;sensor_type;location;lat;lon;timestamp;pressure;altitude;pressure_sealevel;temperature;humidity
49759;BME280;35654;46.080;11.118;2023-05-23T05:46:42;99913.75;;;23.75;49.84
49759;BME280;35654;46.080;11.118;2023-05-23T05:49:10;99908.31;;;25.00;46.33
49759;BME280;35654;46.080;11.118;2023-05-23T05:51:38;99905.63;;;26.03;43.27
49759;BME280;35654;46.080;11.118;2023-05-23T05:54:05;99906.88;;;26.46;41.42
49759;BME280;35654;46.080;11.118;2023-05-23T05:56:31;99911.03;;;26.63;41.18
49759;BME280;35654;46.080;11.118;2023-05-23T05:58:57;99908.47;;;26.91;41.09
49759;BME280;35654;46.080;11.118;2023-05-23T06:01:23;99906.69;;;27.34;40.07
49759;BME280;35654;46.080;11.118;2023-05-23T06:03:50;99916.31;;;27.29;39.83
49759;BME280;70329;45.524;10.194;2023-05-23T06:06:16;99917.34;;;27.68;38.94
49759;BME280;70329;45.524;10.194;2023-05-23T06:08:41;99912.63;;;28.11;38.87
49759;BME280;70329;45.524;10.194;2023-05-23T06:11:07;99920.72;;;28.27;37.51
49759;BME280;70329;45.524;10.194;2023-05-23T06:13:32;99914.72;;;28.39;37.21
49759;BME280;70329;45.524;10.194;2023-05-23T06:15:59;99914.69;;;29.03;36.13
49759;BME280;70329;45.524;10.194;2023-05-23T06:18:24;99911.13;;;28.67;36.24
49759;BME280;70329;45.524;10.194;2023-05-23T06:20:52;99914.28;;;28.41;36.87
49759;BME280;70329;45.524;10.194;2023-05-23T06:23:17;99916.34;;;28.75;36.12
49759;BME280;70329;45.524;10.194;2023-05-23T06:25:42;99915.13;;;28.80;36.06
49759;BME280;70329;45.524;10.194;2023-05-23T06:28:08;99921.50;;;29.30;35.52
49759;BME280;70329;45.524;10.194;2023-05-23T06:30:34;99917.78;;;29.61;35.23
49759;BME280;70329;45.524;10.194;2023-05-23T06:33:03;99918.47;;;29.90;34.93
49759;BME280;70329;45.524;10.194;2023-05-23T06:35:30;99915.66;;;29.79;34.56
49759;BME280;70329;45.524;10.194;2023-05-23T06:37:56;99921.41;;;29.51;35.34
49759;BME280;70329;45.524;10.194;2023-05-23T06:40:23;99915.91;;;28.98;35.98
49759;BME280;70329;45.524;10.194;2023-05-23T06:42:50;99916.31;;;28.93;36.20
49759;BME280;70329;45.524;10.194;2023-05-23T06:45:17;99915.94;;;28.63;36.84
49759;BME280;70329;45.524;10.194;2023-05-23T06:47:44;99922.34;;;28.42;37.25
49759;BME280;70329;45.524;10.194;2023-05-23T06:50:10;99928.38;;;28.26;37.81
49759;BME280;70329;45.524;10.194;2023-05-23T06:52:36;99919.06;;;28.12;39.60
49759;BME280;70329;45.524;10.194;2023-05-23T06:55:01;99919.09;;;28.08;38.62
49759;BME280;70329;45.524;10.194;2023-05-23T06:57:26;99917.88;;;28.13;37.80
49759;BME280;70329;45.524;10.194;2023-05-23T06:59:52;99926.19;;;27.70;39.84
49759;BME280;70329;45.524;10.194;2023-05-23T07:02:18;99915.69;;;27.57;40.57
49759;BME280;70329;45.524;10.194;2023-05-23T07:04:44;99918.81;;;27.45;41.61
49759;BME280;70329;45.524;10.194;2023-05-23T07:07:11;99915.50;;;27.29;41.00
49759;BME280;70329;45.524;10.194;2023-05-23T07:09:39;99915.53;;;27.32;41.72
49759;BME280;70329;45.524;10.194;2023-05-23T07:12:05;99923.06;;;27.17;43.90
49759;BME280;70329;45.524;10.194;2023-05-23T07:14:32;99914.56;;;27.03;43.14
49759;BME280;70329;45.524;10.194;2023-05-23T07:17:01;99913.34;;;27.01;44.04
49759;BME280;70329;45.524;10.194;2023-05-23T07:19:27;99916.59;;;27.06;44.34
49759;BME280;70329;45.524;10.194;2023-05-23T07:21:56;99908.16;;;27.06;44.01
49759;BME280;70329;45.524;10.194;2023-05-23T07:24:22;99913.31;;;26.94;45.43
49759;BME280;70329;45.524;10.194;2023-05-23T07:26:48;99913.38;;;27.04;44.83
49759;BME280;70329;45.524;10.194;2023-05-23T07:29:13;99912.59;;;27.07;44.32
49759;BME280;70329;45.524;10.194;2023-05-23T07:31:40;99907.78;;;27.11;43.59
49759;BME280;70329;45.524;10.194;2023-05-23T07:34:07;99909.88;;;26.71;46.52
49759;BME280;70329;45.524;10.194;2023-05-23T07:36:33;99904.38;;;26.34;46.54
49759;BME280;70329;45.524;10.194;2023-05-23T07:39:00;99908.47;;;26.43;47.52
49759;BME280;70329;45.524;10.194;2023-05-23T07:41:26;99913.31;;;26.46;47.89
49759;BME280;70329;45.524;10.194;2023-05-23T07:43:52;99896.34;;;26.36;46.02
49759;BME280;70329;45.524;10.194;2023-05-23T07:46:17;99907.75;;;26.53;48.69
49759;BME280;70329;45.524;10.194;2023-05-23T07:48:44;99903.75;;;26.58;47.51
49759;BME280;70329;45.524;10.194;2023-05-23T07:51:09;99904.09;;;26.49;51.12
49759;BME280;70329;45.524;10.194;2023-05-23T07:53:34;99906.13;;;26.52;49.14
49759;BME280;70329;45.524;10.194;2023-05-23T07:56:04;99903.75;;;26.58;47.67
49759;BME280;70329;45.524;10.194;2023-05-23T07:58:29;99895.81;;;26.67;47.62
49759;BME280;70329;45.524;10.194;2023-05-23T08:00:55;99897.47;;;26.72;47.24
49759;BME280;70329;45.524;10.194;2023-05-23T08:03:22;99901.56;;;26.81;48.53
49759;BME280;70329;45.524;10.194;2023-05-23T08:05:47;99898.25;;;26.72;48.71
49759;BME280;70329;45.524;10.194;2023-05-23T08:08:13;99898.25;;;26.69;50.06
49759;BME280;70329;45.524;10.194;2023-05-23T08:10:38;99890.97;;;26.64;50.83
49759;BME280;70329;45.524;10.194;2023-05-23T08:13:10;99897.47;;;26.72;51.00
49759;BME280;70329;45.524;10.194;2023-05-23T08:15:35;99887.34;;;26.63;53.14
49759;BME280;70329;45.524;10.194;2023-05-23T08:18:01;99892.22;;;26.70;53.02
49759;BME280;70329;45.524;10.194;2023-05-23T08:20:28;99889.78;;;26.65;54.37
49759;BME280;70329;45.524;10.194;2023-05-23T08:23:02;99895.88;;;26.78;53.98
49759;BME280;70329;45.524;10.194;2023-05-23T08:25:28;99896.34;;;26.80;52.68
49759;BME280;70329;45.524;10.194;2023-05-23T08:27:57;99897.47;;;26.75;55.06
49759;BME280;70329;45.524;10.194;2023-05-23T08:30:25;99901.16;;;26.79;55.07
49759;BME280;70329;45.524;10.194;2023-05-23T08:32:54;99896.75;;;26.82;53.31
49759;BME280;70329;45.524;10.194;2023-05-23T08:35:21;99895.94;;;26.81;54.04
49759;BME280;70329;45.524;10.194;2023-05-23T08:37:47;99905.63;;;26.87;52.54
49759;BME280;70329;45.524;10.194;2023-05-23T08:40:22;99904.00;;;26.83;53.29
49759;BME280;70329;45.524;10.194;2023-05-23T08:42:49;99902.00;;;26.87;52.02
49759;BME280;70329;45.524;10.194;2023-05-23T08:45:15;99904.88;;;26.94;52.15
49759;BME280;70329;45.524;10.194;2023-05-23T08:47:44;99900.81;;;26.91;51.65
49759;BME280;70329;45.524;10.194;2023-05-23T08:50:15;99893.56;;;26.87;51.38
49759;BME280;70329;45.524;10.194;2023-05-23T08:52:51;99902.84;;;26.91;53.10
49759;BME280;70329;45.524;10.194;2023-05-23T08:55:18;99905.59;;;26.84;52.26
49759;BME280;70329;45.524;10.194;2023-05-23T08:57:45;99897.22;;;26.91;52.98
49759;BME280;70329;45.524;10.194;2023-05-23T09:00:14;99910.94;;;26.99;54.77
49759;BME280;70329;45.524;10.194;2023-05-23T09:02:44;99906.13;;;27.03;52.95
49759;BME280;70329;45.524;10.194;2023-05-23T09:05:11;99904.16;;;27.11;51.09
49759;BME280;70329;45.524;10.194;2023-05-23T09:07:38;99900.19;;;27.15;51.79
49759;BME280;70329;45.524;10.194;2023-05-23T09:10:06;99901.41;;;27.18;50.12
49759;BME280;70329;45.524;10.194;2023-05-23T09:12:33;99904.91;;;27.01;52.26
49759;BME280;70329;45.524;10.194;2023-05-23T09:15:03;99898.53;;;27.11;52.48
49759;BME280;70329;45.524;10.194;2023-05-23T09:17:34;99898.97;;;27.13;53.51
49759;BME280;70329;45.524;10.194;2023-05-23T09:20:01;99894.22;;;27.31;51.82
49759;BME280;70329;45.524;10.194;2023-05-23T09:22:28;99904.25;;;27.29;52.75
49759;BME280;70329;45.524;10.194;2023-05-23T09:24:56;99894.63;;;27.30;50.29
49759;BME280;70329;45.524;10.194;2023-05-23T09:27:23;99894.22;;;27.31;54.70
49759;BME280;70329;45.524;10.194;2023-05-23T09:29:49;99893.44;;;27.34;51.16
49759;BME280;70329;45.524;10.194;2023-05-23T09:32:16;99890.25;;;27.39;50.76
49759;BME280;70329;45.524;10.194;2023-05-23T09:35:00;99890.19;;;27.29;49.49
49759;BME280;70329;45.524;10.194;2023-05-23T09:37:38;99889.44;;;27.35;51.15
49759;BME280;70329;45.524;10.194;2023-05-23T09:40:11;99893.53;;;27.48;49.39
49759;BME280;70329;45.524;10.194;2023-05-23T09:42:44;99895.13;;;27.46;50.04
49759;BME280;70329;45.524;10.194;2023-05-23T09:45:13;99886.72;;;27.49;49.22
49759;BME280;70329;45.524;10.194;2023-05-23T09:47:48;99891.56;;;27.59;49.95
49759;BME280;70329;45.524;10.194;2023-05-23T09:50:17;99890.00;;;27.65;49.13
49759;BME280;70329;45.524;10.194;2023-05-23T09:52:42;99893.25;;;27.74;48.37
49759;BME280;70329;45.524;10.194;2023-05-23T09:55:08;99890.44;;;27.82;49.24
49759;BME280;70329;45.524;10.194;2023-05-23T09:57:34;99885.63;;;27.86;47.77
49759;BME280;70329;45.524;10.194;2023-05-23T10:00:02;99884.00;;;27.85;47.08
49759;BME280;70329;45.524;10.194;2023-05-23T10:02:54;99892.84;;;27.87;48.04
49759;BME280;70329;45.524;10.194;2023-05-23T10:05:43;99890.94;;;28.08;47.81
49759;BME280;70329;45.524;10.194;2023-05-23T10:13:28;99877.66;;;28.12;48.13
49759;BME280;70329;45.524;10.194;2023-05-23T10:16:04;99884.88;;;28.06;47.33
49759;BME280;70329;45.524;10.194;2023-05-23T10:18:36;99882.09;;;28.10;47.04
49759;BME280;70329;45.524;10.194;2023-05-23T10:21:08;99867.59;;;28.04;45.09
49759;BME280;70329;45.524;10.194;2023-05-23T10:23:36;99868.41;;;28.19;44.99
49759;BME280;70329;45.524;10.194;2023-05-23T10:26:03;99865.19;;;28.10;44.20
49759;BME280;70329;45.524;10.194;2023-05-23T10:28:30;99865.59;;;28.19;44.61
49759;BME280;70329;45.524;10.194;2023-05-23T10:30:55;99869.22;;;28.23;44.91
49759;BME280;70329;45.524;10.194;2023-05-23T10:33:22;99871.63;;;28.21;46.16
49759;BME280;70329;45.524;10.194;2023-05-23T10:36:09;99873.66;;;28.27;43.05
49759;BME280;70329;45.524;10.194;2023-05-23T10:39:01;99866.00;;;28.07;44.93
49759;BME280;70329;45.524;10.194;2023-05-23T10:41:55;99863.56;;;28.09;45.17
49759;BME280;70329;45.524;10.194;2023-05-23T10:44:29;99855.53;;;28.14;45.38
49759;BME280;70329;45.524;10.194;2023-05-23T10:46:58;99843.88;;;28.30;45.38
49759;BME280;70329;45.524;10.194;2023-05-23T10:49:44;99853.13;;;28.38;44.79
49759;BME280;70329;45.524;10.194;2023-05-23T10:52:13;99854.34;;;28.44;43.94
49759;BME280;70329;45.524;10.194;2023-05-23T10:54:45;99849.50;;;28.37;43.00
49759;BME280;70329;45.524;10.194;2023-05-23T10:57:14;99849.53;;;28.44;43.17
49759;BME280;70329;45.524;10.194;2023-05-23T10:59:41;99853.94;;;28.56;43.85
49759;BME280;70329;45.524;10.194;2023-05-23T11:02:24;99849.91;;;28.57;43.23
49759;BME280;70329;45.524;10.194;2023-05-23T11:05:26;99847.06;;;28.53;42.94
49759;BME280;70329;45.524;10.194;2023-05-23T11:08:11;99841.06;;;28.44;41.49
49759;BME280;70329;45.524;10.194;2023-05-23T11:13:21;99837.84;;;28.67;42.47
49759;BME280;70329;45.524;10.194;2023-05-23T11:15:47;99831.78;;;28.65;41.37
49759;BME280;70329;45.524;10.194;2023-05-23T11:18:25;99833.41;;;28.55;42.10
49759;BME280;70329;45.524;10.194;2023-05-23T11:20:52;99837.03;;;28.66;44.14
49759;BME280;70329;45.524;10.194;2023-05-23T11:23:18;99828.59;;;28.70;43.28
49759;BME280;70329;45.524;10.194;2023-05-23T11:25:53;99839.81;;;28.59;42.86
49759;BME280;70329;45.524;10.194;2023-05-23T11:28:19;99825.34;;;28.61;42.88
49759;BME280;70329;45.524;10.194;2023-05-23T11:30:48;99828.97;;;28.75;43.62
49759;BME280;70329;45.524;10.194;2023-05-23T11:33:16;99826.53;;;28.88;42.79
49759;BME280;70329;45.524;10.194;2023-05-23T11:35:46;99821.28;;;28.97;43.76
49759;BME280;70329;45.524;10.194;2023-05-23T11:38:15;99821.22;;;29.08;43.44
49759;BME280;70329;45.524;10.194;2023-05-23T11:40:45;99821.22;;;29.11;42.50
49759;BME280;70329;45.524;10.194;2023-05-23T11:43:16;99822.03;;;29.05;42.15
49759;BME280;70329;45.524;10.194;2023-05-23T11:45:42;99820.47;;;28.89;42.02
49759;BME280;70329;45.524;10.194;2023-05-23T11:48:08;99818.44;;;28.97;41.56
49759;BME280;70329;45.524;10.194;2023-05-23T11:50:51;99819.25;;;28.98;43.47
49759;BME280;70329;45.524;10.194;2023-05-23T11:53:19;99813.59;;;29.01;43.59
49759;BME280;70329;45.524;10.194;2023-05-23T11:55:56;99811.19;;;28.96;43.76
49759;BME280;70329;45.524;10.194;2023-05-23T11:58:37;99807.56;;;28.96;43.63
49759;BME280;70329;45.524;10.194;2023-05-23T12:01:05;99816.41;;;29.01;42.62
49759;BME280;70329;45.524;10.194;2023-05-23T12:03:32;99809.13;;;29.04;41.40
49759;BME280;70329;45.524;10.194;2023-05-23T12:05:57;99805.13;;;29.01;40.29
49759;BME280;70329;45.524;10.194;2023-05-23T12:08:23;99799.91;;;28.96;40.76
49759;BME280;70329;45.524;10.194;2023-05-23T12:11:01;99808.75;;;29.09;42.92
49759;BME280;70329;45.524;10.194;2023-05-23T12:13:28;99799.84;;;29.24;43.28
49759;BME280;70329;45.524;10.194;2023-05-23T12:15:59;99796.59;;;29.19;41.92
49759;BME280;70329;45.524;10.194;2023-05-23T12:18:27;99795.41;;;29.23;41.35
49759;BME280;70329;45.524;10.194;2023-05-23T12:20:53;99798.56;;;29.39;40.82
49759;BME280;70329;45.524;10.194;2023-05-23T12:23:22;99795.69;;;29.43;40.34
49759;BME280;70329;45.524;10.194;2023-05-23T12:25:52;99797.38;;;29.33;38.80
49759;BME280;70329;45.524;10.194;2023-05-23T12:28:34;99791.38;;;29.24;37.96
49759;BME280;70329;45.524;10.194;2023-05-23T12:31:17;99792.97;;;29.15;36.14
49759;BME280;70329;45.524;10.194;2023-05-23T12:33:44;99797.84;;;29.11;37.58
49759;BME280;70329;45.524;10.194;2023-05-23T12:36:30;99798.59;;;29.29;37.95
49759;BME280;70329;45.524;10.194;2023-05-23T12:39:02;99793.69;;;29.40;38.61
49759;BME280;70329;45.524;10.194;2023-05-23T12:41:27;99796.03;;;29.56;36.96
49759;BME280;70329;45.524;10.194;2023-05-23T12:43:54;99796.56;;;29.36;33.41
49759;BME280;70329;45.524;10.194;2023-05-23T12:46:21;99790.41;;;29.52;34.99
49759;BME280;70329;45.524;10.194;2023-05-23T12:48:47;99792.00;;;29.57;36.22
49759;BME280;70329;45.524;10.194;2023-05-23T12:51:13;99790.38;;;29.59;38.18
49759;BME280;70329;45.524;10.194;2023-05-23T12:53:38;99795.13;;;29.73;38.14
49759;BME280;70329;45.524;10.194;2023-05-23T12:56:04;99778.56;;;29.78;37.33
49759;BME280;70329;45.524;10.194;2023-05-23T12:58:30;99774.56;;;29.76;38.72
49759;BME280;70329;45.524;10.194;2023-05-23T13:00:56;99777.38;;;29.76;37.89
49759;BME280;70329;45.524;10.194;2023-05-23T13:03:23;99777.31;;;29.86;38.18
49759;BME280;70329;45.524;10.194;2023-05-23T13:05:49;99770.41;;;29.94;36.29
49759;BME280;70329;45.524;10.194;2023-05-23T13:08:16;99777.59;;;29.99;36.88
49759;BME280;70329;45.524;10.194;2023-05-23T13:10:43;99780.75;;;30.12;36.17
49759;BME280;70329;45.524;10.194;2023-05-23T13:13:09;99780.66;;;30.22;36.82
49759;BME280;70329;45.524;10.194;2023-05-23T13:15:35;99768.22;;;30.13;34.69
49759;BME280;70329;45.524;10.194;2023-05-23T13:18:01;99770.91;;;29.75;36.62
49759;BME280;70329;45.524;10.194;2023-05-23T13:20:27;99763.09;;;29.38;39.08
49759;BME280;70329;45.524;10.194;2023-05-23T13:22:55;99765.19;;;29.17;38.49
49759;BME280;70329;45.524;10.194;2023-05-23T13:25:21;99767.25;;;29.06;39.00
49759;BME280;70329;45.524;10.194;2023-05-23T13:27:46;99758.38;;;29.04;38.09
49759;BME280;70329;45.524;10.194;2023-05-23T13:30:12;99764.00;;;29.11;37.71
49759;BME280;70329;45.524;10.194;2023-05-23T13:32:37;99757.19;;;29.08;38.03
49759;BME280;70329;45.524;10.194;2023-05-23T13:35:03;99752.72;;;29.11;38.05
49759;BME280;70329;45.524;10.194;2023-05-23T13:37:29;99757.06;;;29.33;36.98
49759;BME280;70329;45.524;10.194;2023-05-23T13:39:54;99751.50;;;29.22;37.04
49759;BME280;70329;45.524;10.194;2023-05-23T13:42:20;99751.97;;;29.03;38.48
49759;BME280;70329;45.524;10.194;2023-05-23T13:44:46;99747.84;;;29.18;37.45
49759;BME280;70329;45.524;10.194;2023-05-23T13:47:14;99747.03;;;29.21;37.19
49759;BME280;70329;45.524;10.194;2023-05-23T13:49:40;99750.28;;;29.16;36.06
49759;BME280;70329;45.524;10.194;2023-05-23T13:52:06;99747.38;;;29.37;36.95
49759;BME280;70329;45.524;10.194;2023-05-23T13:54:32;99746.88;;;29.53;35.96
49759;BME280;70329;45.524;10.194;2023-05-23T13:56:57;99747.63;;;29.64;34.94
49759;BME280;70329;45.524;10.194;2023-05-23T13:59:25;99736.25;;;29.75;35.78
49759;BME280;70329;45.524;10.194;2023-05-23T14:01:50;99739.88;;;29.75;35.69
49759;BME280;70329;45.524;10.194;2023-05-23T14:04:17;99733.72;;;29.87;34.80
49759;BME280;70329;45.524;10.194;2023-05-23T14:06:42;99733.31;;;29.92;36.45
49759;BME280;70329;45.524;10.194;2023-05-23T14:09:07;99730.44;;;29.96;36.01
49759;BME280;70329;45.524;10.194;2023-05-23T14:11:33;99726.38;;;30.00;35.82
49759;BME280;70329;45.524;10.194;2023-05-23T14:13:59;99722.88;;;29.86;36.15
49759;BME280;70329;45.524;10.194;2023-05-23T14:16:24;99718.38;;;29.92;37.13
49759;BME280;70329;45.524;10.194;2023-05-23T14:18:49;99718.03;;;29.79;37.31
49759;BME280;70329;45.524;10.194;2023-05-23T14:21:15;99720.47;;;29.84;36.51
49759;BME280;70329;45.524;10.194;2023-05-23T14:23:40;99714.13;;;29.66;36.66
49759;BME280;70329;45.524;10.194;2023-05-23T14:26:06;99711.66;;;29.75;37.49
49759;BME280;70329;45.524;10.194;2023-05-23T14:28:31;99710.47;;;29.73;35.39
49759;BME280;70329;45.524;10.194;2023-05-23T14:30:57;99711.75;;;29.61;34.93
49759;BME280;70329;45.524;10.194;2023-05-23T14:33:23;99708.03;;;29.71;35.19
49759;BME280;70329;45.524;10.194;2023-05-23T14:35:49;99706.38;;;29.77;35.19
49759;BME280;70329;45.524;10.194;2023-05-23T14:38:16;99697.16;;;29.70;34.65
49759;BME280;70329;45.524;10.194;2023-05-23T14:40:43;99695.91;;;29.74;36.38
49759;BME280;70329;45.524;10.194;2023-05-23T14:43:08;99694.28;;;29.80;36.01
49759;BME280;70329;45.524;10.194;2023-05-23T14:45:34;99689.44;;;29.84;34.94
49759;BME280;70329;45.524;10.194;2023-05-23T14:48:00;99699.06;;;29.87;34.96
49759;BME280;70329;45.524;10.194;2023-05-23T14:50:26;99688.63;;;29.80;35.37
49759;BME280;70329;45.524;10.194;2023-05-23T14:52:51;99691.47;;;29.77;37.76
49759;BME280;70329;45.524;10.194;2023-05-23T14:55:17;99688.66;;;29.73;37.45
49759;BME280;70329;45.524;10.194;2023-05-23T14:57:42;99689.00;;;29.79;37.91
49759;BME280;70329;45.524;10.194;2023-05-23T15:00:09;99682.63;;;29.71;37.14
49759;BME280;70329;45.524;10.194;2023-05-23T15:02:36;99674.97;;;29.72;36.43
49759;BME280;70329;45.524;10.194;2023-05-23T15:05:02;99680.63;;;29.72;36.00
49759;BME280;70329;45.524;10.194;2023-05-23T15:07:28;99676.25;;;29.64;38.07
49759;BME280;70329;45.524;10.194;2023-05-23T15:09:54;99663.69;;;29.72;37.10
49759;BME280;70329;45.524;10.194;2023-05-23T15:12:19;99672.94;;;29.76;36.96
49759;BME280;70329;45.524;10.194;2023-05-23T15:14:45;99669.41;;;29.65;37.14
49759;BME280;70329;45.524;10.194;2023-05-23T15:17:10;99664.28;;;29.45;37.71
49759;BME280;70329;45.524;10.194;2023-05-23T15:19:37;99664.72;;;29.40;37.90
49759;BME280;70329;45.524;10.194;2023-05-23T15:22:07;99658.00;;;29.27;37.68
49759;BME280;70329;45.524;10.194;2023-05-23T15:24:32;99660.75;;;29.34;38.20
49759;BME280;70329;45.524;10.194;2023-05-23T15:26:57;99659.19;;;29.26;37.97
49759;BME280;70329;45.524;10.194;2023-05-23T15:29:24;99661.56;;;29.31;38.58
49759;BME280;70329;45.524;10.194;2023-05-23T15:31:50;99661.22;;;29.19;37.87
49759;BME280;70329;45.524;10.194;2023-05-23T15:34:16;99660.94;;;29.06;38.28
49759;BME280;70329;45.524;10.194;2023-05-23T15:36:41;99668.22;;;29.00;39.38
49759;BME280;70329;45.524;10.194;2023-05-23T15:39:06;99656.94;;;28.97;39.65
49759;BME280;70329;45.524;10.194;2023-05-23T15:41:32;99657.81;;;28.83;39.34
49759;BME280;70329;45.524;10.194;2023-05-23T15:43:57;99663.53;;;28.72;40.04
49759;BME280;70329;45.524;10.194;2023-05-23T15:46:24;99658.69;;;28.69;40.35
49759;BME280;70329;45.524;10.194;2023-05-23T15:48:49;99661.47;;;28.76;39.78
49759;BME280;70329;45.524;10.194;2023-05-23T15:51:14;99661.94;;;28.57;39.92
49759;BME280;70329;45.524;10.194;2023-05-23T15:53:40;99656.34;;;28.50;39.66
49759;BME280;70329;45.524;10.194;2023-05-23T15:56:07;99661.56;;;28.48;40.71
49759;BME280;70329;45.524;10.194;2023-05-23T15:58:32;99659.91;;;28.61;41.46
49759;BME280;70329;45.524;10.194;2023-05-23T16:00:58;99659.91;;;28.65;40.57
49759;BME280;70329;45.524;10.194;2023-05-23T16:03:23;99659.50;;;28.59;39.56
49759;BME280;70329;45.524;10.194;2023-05-23T16:05:49;99663.50;;;28.62;40.89
49759;BME280;70329;45.524;10.194;2023-05-23T16:08:15;99664.31;;;28.59;40.38
49759;BME280;70329;45.524;10.194;2023-05-23T16:10:40;99659.94;;;28.51;40.85
49759;BME280;70329;45.524;10.194;2023-05-23T16:13:06;99657.16;;;28.47;40.53
49759;BME280;70329;45.524;10.194;2023-05-23T16:15:34;99657.16;;;28.37;40.59
49759;BME280;70329;45.524;10.194;2023-05-23T16:18:01;99643.53;;;28.28;40.88
49759;BME280;70329;45.524;10.194;2023-05-23T16:20:29;99649.94;;;28.39;41.70
49759;BME280;70329;45.524;10.194;2023-05-23T16:22:55;99649.53;;;28.41;42.21
49759;BME280;70329;45.524;10.194;2023-05-23T16:25:22;99647.50;;;28.41;40.72
49759;BME280;70329;45.524;10.194;2023-05-23T16:27:48;99650.34;;;28.38;41.63
49759;BME280;70329;45.524;10.194;2023-05-23T16:30:15;99655.59;;;28.32;41.34
49759;BME280;70329;45.524;10.194;2023-05-23T16:32:41;99654.81;;;28.24;41.53
49759;BME280;70329;45.524;10.194;2023-05-23T16:35:08;99648.38;;;28.24;42.02
49759;BME280;70329;45.524;10.194;2023-05-23T16:37:36;99651.19;;;28.20;42.49
49759;BME280;70329;45.524;10.194;2023-05-23T16:40:04;99648.78;;;28.15;41.71
49759;BME280;70329;45.524;10.194;2023-05-23T16:42:31;99654.03;;;28.10;42.75
49759;BME280;70329;45.524;10.194;2023-05-23T16:44:58;99655.66;;;28.07;43.15
49759;BME280;70329;45.524;10.194;2023-05-23T16:47:24;99653.22;;;28.06;41.59
49759;BME280;70329;45.524;10.194;2023-05-23T16:49:51;99662.09;;;28.08;43.50
49759;BME280;70329;45.524;10.194;2023-05-23T16:52:16;99657.22;;;28.01;43.22
49759;BME280;70329;45.524;10.194;2023-05-23T16:54:42;99663.66;;;27.98;44.32
49759;BME280;70329;45.524;10.194;2023-05-23T16:57:08;99654.84;;;27.86;42.59
49759;BME280;70329;45.524;10.194;2023-05-23T16:59:33;99657.28;;;27.77;42.19
49759;BME280;70329;45.524;10.194;2023-05-23T17:01:59;99664.09;;;27.79;42.77
49759;BME280;70329;45.524;10.194;2023-05-23T17:04:24;99658.06;;;27.77;42.93
49759;BME280;70329;45.524;10.194;2023-05-23T17:06:50;99667.72;;;27.69;42.81
49759;BME280;70329;45.524;10.194;2023-05-23T17:09:16;99661.28;;;27.65;42.05
49759;BME280;70329;45.524;10.194;2023-05-23T17:11:44;99671.34;;;27.62;43.01
49759;BME280;70329;45.524;10.194;2023-05-23T17:14:09;99674.16;;;27.59;43.35
49759;BME280;70329;45.524;10.194;2023-05-23T17:16:34;99680.59;;;27.52;44.09
49759;BME280;70329;45.524;10.194;2023-05-23T17:19:00;99686.59;;;27.47;45.26
49759;BME280;70329;45.524;10.194;2023-05-23T17:21:26;99680.91;;;27.33;44.97
49759;BME280;70329;45.524;10.194;2023-05-23T17:23:51;99684.16;;;27.32;44.87
49759;BME280;70329;45.524;10.194;2023-05-23T17:26:18;99682.91;;;27.26;43.60
49759;BME280;70329;45.524;10.194;2023-05-23T17:28:43;99692.53;;;27.10;43.85
49759;BME280;70329;45.524;10.194;2023-05-23T17:31:09;99689.69;;;27.00;43.66
49759;BME280;70329;45.524;10.194;2023-05-23T17:33:35;99696.09;;;26.93;43.97
49759;BME280;70329;45.524;10.194;2023-05-23T17:36:00;99698.50;;;26.88;42.74
49759;BME280;70329;45.524;10.194;2023-05-23T17:38:26;99698.00;;;26.75;43.01
49759;BME280;70329;45.524;10.194;2023-05-23T17:40:51;99695.19;;;26.72;42.74
49759;BME280;70329;45.524;10.194;2023-05-23T17:43:17;99701.19;;;26.70;42.97
49759;BME280;70329;45.524;10.194;2023-05-23T17:45:42;99695.16;;;26.65;43.16
49759;BME280;70329;45.524;10.194;2023-05-23T17:48:07;99697.53;;;26.59;42.92
49759;BME280;70329;45.524;10.194;2023-05-23T17:50:33;99701.09;;;26.52;44.02
49759;BME280;70329;45.524;10.194;2023-05-23T17:52:58;99707.50;;;26.46;43.73
49759;BME280;70329;45.524;10.194;2023-05-23T17:55:23;99699.03;;;26.35;43.55
49759;BME280;70329;45.524;10.194;2023-05-23T17:57:49;99700.19;;;26.31;44.27
49759;BME280;70329;45.524;10.194;2023-05-23T18:00:14;99696.50;;;26.20;44.79
49759;BME280;70329;45.524;10.194;2023-05-23T18:02:41;99700.44;;;26.12;45.40
49759;BME280;70329;45.524;10.194;2023-05-23T18:05:08;99700.00;;;26.06;45.61
49759;BME280;70329;45.524;10.194;2023-05-23T18:07:34;99693.13;;;26.00;44.70
49759;BME280;70329;45.524;10.194;2023-05-23T18:10:01;99705.91;;;25.94;46.70
49759;BME280;70329;45.524;10.194;2023-05-23T18:12:27;99707.84;;;25.83;45.19
49759;BME280;70329;45.524;10.194;2023-05-23T18:14:53;99695.34;;;25.73;44.35
49759;BME280;70329;45.524;10.194;2023-05-23T18:17:18;99702.09;;;25.65;42.52
49759;BME280;70329;45.524;10.194;2023-05-23T18:19:43;99705.69;;;25.62;42.12
49759;BME280;70329;45.524;10.194;2023-05-23T18:22:11;99705.59;;;25.55;42.91
49759;BME280;70329;45.524;10.194;2023-05-23T18:24:36;99704.28;;;25.45;41.83
49759;BME280;70329;45.524;10.194;2023-05-23T18:27:02;99705.81;;;25.39;41.92
49759;BME280;70329;45.524;10.194;2023-05-23T18:29:27;99706.94;;;25.31;42.45
49759;BME280;70329;45.524;10.194;2023-05-23T18:31:53;99705.72;;;25.29;43.62
49759;BME280;70329;45.524;10.194;2023-05-23T18:34:19;99704.06;;;25.24;43.85
49759;BME280;70329;45.524;10.194;2023-05-23T18:36:45;99711.59;;;25.17;46.24
49759;BME280;70329;45.524;10.194;2023-05-23T18:39:11;99709.81;;;25.02;48.83
49759;BME280;70329;45.524;10.194;2023-05-23T18:41:36;99710.94;;;24.94;49.20
49759;BME280;70329;45.524;10.194;2023-05-23T18:44:01;99719.25;;;24.86;50.10
49759;BME280;70329;45.524;10.194;2023-05-23T18:46:29;99714.78;;;24.82;50.62